Time;durP1;ratioP1;P1;durP2;ratioP2;P2;SDS_P1;SDS_P2;PMS_P1;PMS_P2;Temp;Humidity;BMP_temperature;BMP_pressure;BME280_temperature;BME280_humidity;BME280_pressure;Samples;Min_cycle;Max_cycle;Signal;HPM_P1;HPM_P2
2023/04/07 00:00:33;;;;;;;11.85;9.43;;;;;;;;;;6206960;23;20346;-82
2023/04/07 00:03:32;;;;;;;11.80;10.17;;;;;;;;;;6188556;23;20350;-82
2023/04/07 00:06:08;;;;;;;13.15;11.20;;;;;;;;;;6188919;23;20504;-84
2023/04/07 00:09:03;;;;;;;12.85;10.68;;;;;;;;;;6215124;23;20366;-84
2023/04/07 00:11:51;;;;;;;;;;;;;;;;;;;;;
2023/04/07 00:14:58;;;;;;;13.00;10.60;;;;;;;;;;6215050;23;20445;-84
2023/04/07 00:17:38;;;;;;;14.10;11.00;;;;;;;;;;6188290;23;20346;-84
2023/04/07 00:20:19;;;;;;;15.90;11.63;;;;;;;;;;6188456;23;20389;-84
2023/04/07 00:23:18;;;;;;;;;;;;;;;;;;;;;
2023/04/07 00:26:06;;;;;;;;;;;;;;;;;;;;;
2023/04/07 00:28:44;;;;;;;13.10;10.73;;;;;;;;;;6215054;23;20413;-84
2023/04/07 00:34:50;;;;;;;;;;;;;;;;;;;;;
2023/04/07 00:37:30;;;;;;;14.20;11.30;;;;;;;;;;6215710;23;20366;-84
2023/04/07 00:43:24;;;;;;;;;;;;;;;;;;;;;
2023/04/07 00:46:11;;;;;;;14.35;11.80;;;;;;;;;;6216999;23;20410;-81
2023/04/07 00:48:55;;;;;;;14.07;11.40;;;;;;;;;;6214519;23;20338;-84
2023/04/07 00:51:38;;;;;;;14.98;12.48;;;;;;;;;;6214614;23;20658;-84
2023/04/07 00:54:32;;;;;;;;;;;;;;;;;;;;;
2023/04/07 00:57:08;;;;;;;13.82;12.15;;;;;;;;;;6214388;23;20429;-84
2023/04/07 00:59:45;;;;;;;14.87;13.37;;;;;;;;;;6214331;23;20380;-84
2023/04/07 01:08:40;;;;;;;14.32;12.80;;;;;;;;;;6185245;23;20378;-84
2023/04/07 01:11:22;;;;;;;;;;;;;;;;;;;;;
2023/04/07 01:14:32;;;;;;;15.52;13.45;;;;;;;;;;6215010;23;20453;-84
2023/04/07 01:17:31;;;;;;;;;;;;;;;;;;;;;
2023/04/07 01:23:21;;;;;;;;;;;;;;;;;;;;;
2023/04/07 01:26:29;;;;;;;;;;;;;;;;;;;;;
2023/04/07 01:35:42;;;;;;;;;;;;;;;;;;;;;
2023/04/07 01:38:22;;;;;;;;;;;;;;;;;;;;;
2023/04/07 01:41:19;;;;;;;;;;;;;;;;;;;;;
2023/04/07 01:44:01;;;;;;;;;;;;;;;;;;;;;
2023/04/07 01:46:49;;;;;;;14.90;13.07;;;;;;;;;;6214145;23;20417;-84
2023/04/07 01:49:53;;;;;;;14.38;12.88;;;;;;;;;;6213167;23;20432;-84
2023/04/07 01:53:00;;;;;;;;;;;;;;;;;;;;;
2023/04/07 01:58:33;;;;;;;14.53;12.37;;;;;;;;;;6205266;23;20662;-84
2023/04/07 02:01:19;;;;;;;15.43;13.43;;;;;;;;;;6165925;23;20392;-84
2023/04/07 02:03:55;;;;;;;14.00;12.50;;;;;;;;;;6189126;23;20365;-84
2023/04/07 02:06:30;;;;;;;15.48;13.25;;;;;;;;;;6189131;23;20354;-84
2023/04/07 02:09:05;;;;;;;14.25;12.90;;;;;;;;;;6188605;23;20346;-83
2023/04/07 02:11:42;;;;;;;16.17;13.43;;;;;;;;;;6189801;23;20437;-84
2023/04/07 02:14:23;;;;;;;14.70;12.88;;;;;;;;;;6189281;23;20369;-84
2023/04/07 02:16:52;;;;;;;14.27;12.77;;;;;;;;;;6189280;23;20410;-84
2023/04/07 02:19:20;;;;;;;16.45;13.25;;;;;;;;;;6188843;23;20438;-84
2023/04/07 02:21:48;;;;;;;14.63;13.15;;;;;;;;;;6189524;23;20818;-84
2023/04/07 02:24:19;;;;;;;16.15;13.77;;;;;;;;;;6189173;23;20338;-84
2023/04/07 02:26:46;;;;;;;15.32;13.73;;;;;;;;;;6188416;23;20350;-84
2023/04/07 02:29:14;;;;;;;15.35;13.68;;;;;;;;;;6188835;23;20400;-84
2023/04/07 02:31:45;;;;;;;15.30;13.60;;;;;;;;;;6215868;23;20789;-84
2023/04/07 02:34:16;;;;;;;15.90;13.38;;;;;;;;;;6189183;23;20354;-84
2023/04/07 02:36:44;;;;;;;16.48;14.88;;;;;;;;;;6188327;23;20347;-84
2023/04/07 02:39:13;;;;;;;16.77;15.00;;;;;;;;;;6189123;23;20357;-84
2023/04/07 02:41:39;;;;;;;16.05;14.40;;;;;;;;;;6215800;23;20438;-84
2023/04/07 02:44:05;;;;;;;18.60;14.77;;;;;;;;;;6215871;23;20342;-84
2023/04/07 02:46:31;;;;;;;16.50;14.30;;;;;;;;;;6189066;23;20349;-84
2023/04/07 02:48:57;;;;;;;18.25;14.48;;;;;;;;;;6188470;23;20345;-84
2023/04/07 02:51:23;;;;;;;15.05;13.52;;;;;;;;;;6189541;23;20354;-84
2023/04/07 02:53:49;;;;;;;15.52;13.73;;;;;;;;;;6192729;23;20829;-83
2023/04/07 02:56:15;;;;;;;15.98;14.27;;;;;;;;;;6193028;23;20389;-84
2023/04/07 02:58:41;;;;;;;16.33;14.30;;;;;;;;;;6189739;23;20357;-84
2023/04/07 03:01:07;;;;;;;15.20;13.60;;;;;;;;;;6188028;23;20346;-84
2023/04/07 03:03:34;;;;;;;16.17;13.93;;;;;;;;;;6188602;23;20860;-84
2023/04/07 03:06:02;;;;;;;18.52;13.85;;;;;;;;;;6188915;23;20338;-84
2023/04/07 03:08:28;;;;;;;14.85;13.32;;;;;;;;;;6188741;23;20550;-84
2023/04/07 03:10:54;;;;;;;16.05;14.10;;;;;;;;;;6188418;23;20366;-84
2023/04/07 03:13:20;;;;;;;15.82;14.00;;;;;;;;;;6215019;23;20361;-84
2023/04/07 03:15:46;;;;;;;15.80;13.60;;;;;;;;;;6188190;23;20353;-83
2023/04/07 03:18:16;;;;;;;16.13;13.68;;;;;;;;;;6188522;23;20346;-83
2023/04/07 03:20:43;;;;;;;18.23;13.60;;;;;;;;;;6188557;23;20346;-83
2023/04/07 03:23:09;;;;;;;14.70;13.05;;;;;;;;;;6187902;23;20419;-83
2023/04/07 03:25:36;;;;;;;14.93;13.32;;;;;;;;;;6188679;23;20350;-83
2023/04/07 03:28:02;;;;;;;15.60;13.73;;;;;;;;;;6188493;23;20352;-83
2023/04/07 03:30:28;;;;;;;15.27;13.77;;;;;;;;;;6188487;23;20342;-83
2023/04/07 03:32:54;;;;;;;17.50;14.88;;;;;;;;;;6188327;23;20432;-83
2023/04/07 03:35:22;;;;;;;18.03;14.57;;;;;;;;;;6188788;23;20460;-84
2023/04/07 03:37:51;;;;;;;15.77;13.55;;;;;;;;;;6188466;23;20358;-84
2023/04/07 03:40:17;;;;;;;15.55;13.45;;;;;;;;;;6187953;23;20437;-84
2023/04/07 03:42:45;;;;;;;15.25;13.65;;;;;;;;;;6188489;23;20346;-84
2023/04/07 03:45:11;;;;;;;17.10;14.30;;;;;;;;;;6187872;23;20416;-84
2023/04/07 03:47:37;;;;;;;15.43;13.05;;;;;;;;;;6188091;23;20353;-84
2023/04/07 03:50:04;;;;;;;16.60;13.43;;;;;;;;;;6214685;23;20369;-83
2023/04/07 03:52:30;;;;;;;14.90;12.52;;;;;;;;;;6214658;23;20354;-84
2023/04/07 03:54:56;;;;;;;16.08;13.25;;;;;;;;;;6215867;23;20365;-84
2023/04/07 03:57:22;;;;;;;15.48;12.82;;;;;;;;;;6212080;23;20429;-84
2023/04/07 03:59:51;;;;;;;15.57;12.45;;;;;;;;;;6240886;22;20352;-84
2023/04/07 04:02:17;;;;;;;14.40;12.95;;;;;;;;;;6215247;23;20340;-83
2023/04/07 04:04:51;;;;;;;13.57;12.15;;;;;;;;;;6214201;23;20400;-83
2023/04/07 04:07:17;;;;;;;14.50;13.00;;;;;;;;;;6229905;22;20353;-84
2023/04/07 04:09:45;;;;;;;15.68;12.82;;;;;;;;;;6187245;23;20675;-84
2023/04/07 04:12:11;;;;;;;15.05;12.90;;;;;;;;;;6215121;23;20342;-84
2023/04/07 04:14:37;;;;;;;15.23;12.60;;;;;;;;;;6214709;23;20349;-84
2023/04/07 04:17:03;;;;;;;13.68;11.98;;;;;;;;;;6214442;23;20338;-84
2023/04/07 04:19:29;;;;;;;14.65;12.88;;;;;;;;;;6214356;23;20349;-84
2023/04/07 04:21:55;;;;;;;13.20;11.77;;;;;;;;;;6213927;23;20363;-84
2023/04/07 04:24:21;;;;;;;13.00;11.70;;;;;;;;;;6187636;23;20666;-84
2023/04/07 04:26:47;;;;;;;13.60;12.20;;;;;;;;;;6214657;23;20409;-84
2023/04/07 04:29:14;;;;;;;13.10;11.80;;;;;;;;;;6214187;23;20348;-84
2023/04/07 04:31:40;;;;;;;12.73;11.40;;;;;;;;;;6188302;23;20381;-84
2023/04/07 04:34:07;;;;;;;14.57;12.13;;;;;;;;;;6193665;23;20366;-83
2023/04/07 04:36:36;;;;;;;12.85;11.55;;;;;;;;;;6190302;23;20346;-84
2023/04/07 04:39:05;;;;;;;12.93;11.73;;;;;;;;;;6193654;23;20420;-84
2023/04/07 04:41:31;;;;;;;13.23;11.70;;;;;;;;;;6217870;23;20392;-84
2023/04/07 04:44:06;;;;;;;13.38;11.90;;;;;;;;;;6186952;23;20366;-84
2023/04/07 04:46:37;;;;;;;13.07;11.77;;;;;;;;;;6208474;23;20357;-84
2023/04/07 04:49:06;;;;;;;12.80;11.50;;;;;;;;;;6214752;23;20346;-84
2023/04/07 04:51:35;;;;;;;13.77;12.10;;;;;;;;;;6188743;23;20450;-85
2023/04/07 04:54:05;;;;;;;15.63;13.00;;;;;;;;;;6224576;23;20361;-84
2023/04/07 04:56:41;;;;;;;14.05;12.65;;;;;;;;;;6189139;23;20465;-84
2023/04/07 04:59:07;;;;;;;13.82;11.95;;;;;;;;;;6188960;23;20380;-82
2023/04/07 05:01:36;;;;;;;13.30;12.00;;;;;;;;;;6216479;23;20345;-83
2023/04/07 05:04:04;;;;;;;13.52;11.80;;;;;;;;;;6216424;23;20338;-82
2023/04/07 05:06:39;;;;;;;14.20;11.80;;;;;;;;;;6192742;23;20334;-82
2023/04/07 05:09:08;;;;;;;12.35;11.05;;;;;;;;;;6220847;23;20369;-83
2023/04/07 05:11:43;;;;;;;12.93;11.50;;;;;;;;;;6217910;23;20366;-83
2023/04/07 05:14:13;;;;;;;14.52;10.82;;;;;;;;;;6216486;23;20375;-84
2023/04/07 05:16:44;;;;;;;12.33;10.87;;;;;;;;;;6189112;23;20678;-83
2023/04/07 05:19:13;;;;;;;13.40;11.32;;;;;;;;;;6216879;23;20334;-83
2023/04/07 05:22:06;;;;;;;13.45;11.60;;;;;;;;;;6191277;23;20413;-84
2023/04/07 05:24:38;;;;;;;12.43;10.70;;;;;;;;;;6217913;23;20397;-84
2023/04/07 05:27:18;;;;;;;11.93;10.70;;;;;;;;;;6218649;23;20330;-83
2023/04/07 05:30:02;;;;;;;12.50;11.20;;;;;;;;;;6188446;23;20346;-84
2023/04/07 05:32:29;;;;;;;12.50;10.65;;;;;;;;;;6190686;23;20810;-84
2023/04/07 05:34:55;;;;;;;11.88;10.68;;;;;;;;;;6218098;23;20350;-83
2023/04/07 05:37:26;;;;;;;13.60;11.48;;;;;;;;;;6191251;23;20350;-84
2023/04/07 05:40:00;;;;;;;11.48;10.38;;;;;;;;;;6191876;23;20421;-83
2023/04/07 05:42:28;;;;;;;13.18;11.13;;;;;;;;;;6186675;23;20457;-84
2023/04/07 05:44:57;;;;;;;13.93;10.80;;;;;;;;;;6186415;23;20351;-83
2023/04/07 05:50:12;;;;;;;13.20;10.52;;;;;;;;;;6181230;23;20478;-84
2023/04/07 05:52:41;;;;;;;12.65;10.07;;;;;;;;;;6185910;23;20795;-84
2023/04/07 05:55:10;;;;;;;12.18;10.88;;;;;;;;;;6186301;23;20663;-84
2023/04/07 05:57:36;;;;;;;12.38;10.55;;;;;;;;;;6186813;23;20660;-84
2023/04/07 06:00:03;;;;;;;11.55;10.27;;;;;;;;;;6186109;23;20367;-83
2023/04/07 06:02:29;;;;;;;11.70;9.85;;;4.10;99.90;;;;;;6187864;23;20348;-84
2023/04/07 06:04:54;;;;;;;12.93;10.02;;;4.20;99.90;;;;;;6209942;23;20363;-84
2023/04/07 06:07:20;;;;;;;12.77;10.23;;;4.50;99.90;;;;;;6185235;23;20447;-83
2023/04/07 06:09:46;;;;;;;14.15;10.27;;;4.40;99.90;;;;;;6186165;23;20791;-84
2023/04/07 06:12:13;;;;;;;13.23;10.63;;;4.40;99.90;;;;;;6189472;23;20339;-84
2023/04/07 06:14:39;;;;;;;13.43;10.68;;;4.40;99.90;;;;;;6194334;23;20949;-84
2023/04/07 06:17:05;;;;;;;11.23;10.00;;;4.60;99.90;;;;;;6196594;23;20343;-84
2023/04/07 06:19:32;;;;;;;13.50;10.27;;;4.20;99.90;;;;;;6195978;23;20344;-83
2023/04/07 06:21:57;;;;;;;12.30;9.80;;;4.20;99.90;;;;;;6189894;23;20343;-84
2023/04/07 06:24:24;;;;;;;13.07;9.83;;;4.30;99.90;;;;;;6213225;23;20359;-83
2023/04/07 06:26:51;;;;;;;12.63;9.55;;;4.50;99.90;;;;;;6212532;23;20352;-83
2023/04/07 06:29:17;;;;;;;11.85;9.63;;;4.80;99.90;;;;;;6204824;23;20348;-84
2023/04/07 06:31:43;;;;;;;10.37;9.27;;;5.10;99.90;;;;;;6208581;23;20384;-83
2023/04/07 06:34:08;;;;;;;13.63;9.57;;;5.30;99.90;;;;;;6198784;23;20378;-84
2023/04/07 06:36:34;;;;;;;10.93;9.57;;;5.40;99.90;;;;;;6184342;23;20450;-84
2023/04/07 06:39:00;;;;;;;12.40;10.13;;;5.40;99.90;;;;;;6183307;23;20350;-84
2023/04/07 06:41:25;;;;;;;10.67;9.40;;;5.50;99.90;;;;;;6183732;23;20672;-84
2023/04/07 06:43:53;;;;;;;11.43;9.17;;;5.40;99.90;;;;;;6214236;23;21343;-83
2023/04/07 06:46:19;;;;;;;11.73;9.33;;;5.60;99.90;;;;;;6215766;23;20342;-83
2023/04/07 06:48:45;;;;;;;11.63;9.23;;;5.70;99.90;;;;;;6188197;23;20452;-84
2023/04/07 06:51:10;;;;;;;12.10;9.38;;;6.00;99.90;;;;;;6215068;23;20433;-84
2023/04/07 06:53:36;;;;;;;11.35;8.80;;;6.00;99.90;;;;;;6214723;23;20468;-83
2023/04/07 06:56:03;;;;;;;11.70;8.93;;;6.20;99.90;;;;;;6214874;23;20762;-84
2023/04/07 06:58:28;;;;;;;9.80;8.20;;;6.10;99.90;;;;;;6189411;23;20362;-83
2023/04/07 07:00:54;;;;;;;17.63;8.70;;;6.80;99.90;;;;;;6215571;23;20346;-84
2023/04/07 07:03:20;;;;;;;9.02;7.35;;;8.60;99.90;;;;;;6189217;23;20736;-84
2023/04/07 07:05:45;;;;;;;10.27;7.50;;;9.40;99.90;;;;;;6188142;23;20389;-83
2023/04/07 07:08:11;;;;;;;9.73;6.47;;;9.70;99.90;;;;;;6215367;23;20350;-84
2023/04/07 07:10:37;;;;;;;9.37;6.53;;;10.90;99.90;;;;;;6215672;23;20334;-84
2023/04/07 07:13:02;;;;;;;11.55;7.15;;;11.30;99.90;;;;;;6214983;23;20362;-84
2023/04/07 07:15:28;;;;;;;9.13;7.00;;;10.40;99.90;;;;;;6187878;23;20439;-83
2023/04/07 07:17:56;;;;;;;10.13;7.50;;;8.90;99.90;;;;;;6187859;23;20354;-83
2023/04/07 07:20:24;;;;;;;9.40;6.60;;;9.10;99.90;;;;;;6188556;23;20378;-82
2023/04/07 07:22:50;;;;;;;11.17;7.00;;;9.50;99.90;;;;;;6188809;23;20369;-84
2023/04/07 07:25:16;;;;;;;8.67;6.63;;;10.00;99.90;;;;;;6187701;23;20829;-83
2023/04/07 07:27:41;;;;;;;11.48;6.57;;;10.10;99.90;;;;;;6214872;23;20350;-84
2023/04/07 07:30:07;;;;;;;9.70;7.03;;;10.80;99.90;;;;;;6187828;23;20717;-83
2023/04/07 07:32:33;;;;;;;7.90;6.07;;;11.20;99.90;;;;;;6214717;23;20342;-84
2023/04/07 07:34:59;;;;;;;10.27;6.23;;;11.50;99.90;;;;;;6215248;23;20726;-83
2023/04/07 07:37:27;;;;;;;8.85;6.53;;;10.80;99.90;;;;;;6187511;23;20817;-84
2023/04/07 07:39:52;;;;;;;8.52;6.50;;;11.40;99.90;;;;;;6214381;23;20439;-86
2023/04/07 07:42:18;;;;;;;9.87;6.40;;;11.20;99.90;;;;;;6187779;23;20825;-84
2023/04/07 07:44:44;;;;;;;7.70;6.17;;;11.20;99.90;;;;;;6187614;23;20507;-86
2023/04/07 07:47:11;;;;;;;58.00;9.98;;;11.00;99.90;;;;;;6214215;23;20348;-84
2023/04/07 07:49:36;;;;;;;8.23;5.82;;;9.80;99.90;;;;;;6214767;23;20413;-85
2023/04/07 07:52:02;;;;;;;10.10;5.90;;;9.70;99.90;;;;;;6189121;23;20382;-84
2023/04/07 07:54:28;;;;;;;7.55;6.20;;;9.60;99.90;;;;;;6214717;23;20362;-84
2023/04/07 07:56:53;;;;;;;8.80;6.03;;;9.10;99.90;;;;;;6214635;23;20369;-85
2023/04/07 07:59:20;;;;;;;6.00;5.40;;;9.50;99.90;;;;;;6214090;23;20342;-84
2023/04/07 08:01:49;;;;;;;8.02;5.97;;;9.60;99.90;;;;;;6187721;23;20362;-84
2023/04/07 08:04:14;;;;;;;8.07;5.97;;;9.60;99.90;;;;;;6187995;23;20376;-85
2023/04/07 08:06:41;;;;;;;7.67;5.83;;;9.60;99.90;;;;;;6187381;23;20830;-84
2023/04/07 08:09:07;;;;;;;7.80;5.68;;;10.40;99.90;;;;;;6187367;23;20408;-84
2023/04/07 08:11:32;;;;;;;9.00;5.77;;;10.60;99.90;;;;;;6214029;23;20426;-85
2023/04/07 08:13:58;;;;;;;7.27;5.30;;;11.50;99.30;;;;;;6187517;23;20397;-84
2023/04/07 08:16:25;;;;;;;6.07;5.07;;;11.70;98.60;;;;;;6187986;23;20361;-84
2023/04/07 08:18:51;;;;;;;7.40;5.18;;;11.30;98.10;;;;;;6187883;23;20347;-85
2023/04/07 08:21:16;;;;;;;5.73;5.13;;;11.70;98.90;;;;;;6187401;23;20353;-84
2023/04/07 08:23:42;;;;;;;8.52;5.97;;;11.00;96.50;;;;;;6187587;23;20343;-84
2023/04/07 08:26:08;;;;;;;9.85;5.72;;;9.50;98.30;;;;;;6187261;23;20354;-84
2023/04/07 08:28:34;;;;;;;6.00;5.07;;;8.80;99.90;;;;;;6187411;23;20357;-84
2023/04/07 08:30:59;;;;;;;7.10;5.80;;;9.10;99.30;;;;;;6214606;23;20350;-84
2023/04/07 08:33:25;;;;;;;7.63;5.63;;;9.10;99.60;;;;;;6213867;23;20423;-83
2023/04/07 08:35:51;;;;;;;7.53;5.60;;;8.90;98.80;;;;;;6187865;23;20717;-86
2023/04/07 08:38:17;;;;;;;8.77;5.50;;;8.70;99.20;;;;;;6188041;23;20361;-84
2023/04/07 08:40:42;;;;;;;8.10;5.80;;;8.20;99.60;;;;;;6215947;23;20428;-83
2023/04/07 08:43:09;;;;;;;7.45;5.80;;;8.20;99.70;;;;;;6214566;23;20420;-83
2023/04/07 08:45:41;;;;;;;7.30;5.78;;;7.90;99.90;;;;;;6187152;23;20350;-84
2023/04/07 08:48:25;;;;;;;7.47;5.43;;;8.20;99.90;;;;;;6214533;23;20342;-84
2023/04/07 08:50:52;;;;;;;7.28;4.95;;;8.40;98.70;;;;;;6187571;23;20794;-84
2023/04/07 08:53:26;;;;;;;7.75;5.35;;;8.30;98.70;;;;;;6213886;23;20362;-84
2023/04/07 08:55:54;;;;;;;7.75;4.93;;;8.40;99.90;;;;;;6187224;23;20666;-85
2023/04/07 08:58:21;;;;;;;6.05;4.55;;;8.40;99.40;;;;;;6213584;23;20350;-84
2023/04/07 09:00:48;;;;;;;6.25;4.80;;;8.20;98.10;;;;;;6213723;23;20389;-84
2023/04/07 09:03:15;;;;;;;7.53;4.97;;;7.80;98.20;;;;;;6187617;23;20342;-84
2023/04/07 09:05:44;;;;;;;6.35;4.75;;;7.70;98.60;;;;;;6214324;23;20342;-85
2023/04/07 09:08:09;;;;;;;7.85;4.75;;;7.50;99.60;;;;;;6186769;23;20412;-84
2023/04/07 09:10:36;;;;;;;5.80;4.30;;;7.70;99.90;;;;;;6186955;23;20350;-84
2023/04/07 09:13:01;;;;;;;23.70;5.03;;;7.70;99.60;;;;;;6187393;23;20362;-84
2023/04/07 09:15:31;;;;;;;5.32;3.90;;;7.70;99.50;;;;;;6214153;23;20897;-84
2023/04/07 09:17:58;;;;;;;4.65;3.53;;;7.60;98.50;;;;;;6187331;23;20354;-84
2023/04/07 09:20:24;;;;;;;5.60;3.63;;;7.60;98.40;;;;;;6213309;23;20350;-84
2023/04/07 09:22:50;;;;;;;5.00;4.07;;;7.80;98.40;;;;;;6187936;23;20433;-84
2023/04/07 09:25:18;;;;;;;4.72;3.50;;;7.70;98.80;;;;;;6214549;23;20832;-84
2023/04/07 09:28:04;;;;;;;54.63;7.43;;;7.90;99.90;;;;;;6215053;23;20671;-84
2023/04/07 09:30:32;;;;;;;5.17;3.60;;;8.10;99.00;;;;;;6189155;23;20463;-85
2023/04/07 09:32:59;;;;;;;7.07;3.90;;;8.00;99.00;;;;;;6187057;23;20436;-84
2023/04/07 09:35:27;;;;;;;6.28;3.10;;;8.10;98.50;;;;;;6187604;23;20364;-84
2023/04/07 09:38:05;;;;;;;29.63;4.93;;;8.30;98.50;;;;;;6213880;23;20341;-84
2023/04/07 09:40:31;;;;;;;3.75;3.17;;;7.90;99.70;;;;;;6213481;23;20342;-84
2023/04/07 09:43:00;;;;;;;3.35;3.03;;;7.70;98.40;;;;;;6212883;23;20361;-83
2023/04/07 09:45:30;;;;;;;4.32;3.38;;;7.60;98.90;;;;;;6213787;23;20382;-84
2023/04/07 09:47:56;;;;;;;4.90;3.17;;;7.60;99.50;;;;;;6213460;23;20342;-84
2023/04/07 09:51:03;;;;;;;3.73;2.70;;;7.60;99.10;;;;;;6186880;23;20682;-83
2023/04/07 09:53:53;;;;;;;4.90;3.27;;;7.60;99.20;;;;;;6194165;23;20392;-83
2023/04/07 09:56:23;;;;;;;7.57;3.38;;;7.40;99.20;;;;;;6187122;23;20350;-84
2023/04/07 09:58:52;;;;;;;4.13;3.38;;;7.50;99.60;;;;;;6186893;23;20357;-84
2023/04/07 10:01:19;;;;;;;4.38;2.85;;;7.70;99.90;;;;;;6187107;23;20350;-84
2023/04/07 10:03:46;;;;;;;3.40;3.10;;;7.70;99.90;;;;;;6213885;23;20358;-84
2023/04/07 10:06:12;;;;;;;4.38;3.05;;;7.80;99.90;;;;;;6186850;23;20354;-84
2023/04/07 10:08:41;;;;;;;4.30;3.35;;;7.80;99.90;;;;;;6187665;23;20825;-84
2023/04/07 10:11:08;;;;;;;3.78;3.22;;;7.10;99.90;;;;;;6214525;23;20887;-84
2023/04/07 10:13:38;;;;;;;4.03;2.90;;;7.20;99.90;;;;;;6188087;23;20572;-83
2023/04/07 10:16:05;;;;;;;4.22;3.22;;;7.40;99.90;;;;;;6188825;23;20346;-84
2023/04/07 10:18:32;;;;;;;3.95;3.25;;;7.50;99.90;;;;;;6189553;23;20384;-83
2023/04/07 10:21:06;;;;;;;3.58;3.20;;;7.60;99.90;;;;;;6189803;23;20428;-84
2023/04/07 10:23:54;;;;;;;5.85;3.50;;;7.60;99.90;;;;;;6189738;23;20371;-85
2023/04/07 10:26:25;;;;;;;5.47;3.15;;;7.70;99.90;;;;;;6216210;23;20513;-84
2023/04/07 10:28:55;;;;;;;4.97;2.85;;;7.90;99.90;;;;;;6215987;23;20342;-85
2023/04/07 10:31:23;;;;;;;13.67;3.53;;;8.20;99.90;;;;;;6217260;23;20338;-82
2023/04/07 10:33:52;;;;;;;6.22;3.60;;;7.90;99.90;;;;;;6190421;23;20697;-83
2023/04/07 10:36:20;;;;;;;6.47;3.33;;;7.80;99.90;;;;;;6191527;23;20346;-83
2023/04/07 10:39:08;;;;;;;4.70;3.25;;;7.80;99.90;;;;;;6218313;23;20424;-83
2023/04/07 10:41:38;;;;;;;6.72;3.42;;;7.70;99.90;;;;;;6191102;23;20410;-84
2023/04/07 10:44:05;;;;;;;4.47;3.40;;;7.50;99.90;;;;;;6218241;23;20342;-85
2023/04/07 10:46:50;;;;;;;4.53;3.30;;;7.80;99.90;;;;;;6191890;23;20354;-85
2023/04/07 10:49:17;;;;;;;3.97;3.13;;;8.00;99.90;;;;;;6219167;23;20326;-84
2023/04/07 10:51:42;;;;;;;4.15;3.10;;;8.50;99.90;;;;;;6193065;23;20350;-84
2023/04/07 10:54:15;;;;;;;7.40;3.40;;;8.30;99.90;;;;;;6217073;23;20364;-85
2023/04/07 10:57:02;;;;;;;4.40;3.33;;;8.20;99.90;;;;;;6190723;23;20400;-85
2023/04/07 10:59:34;;;;;;;4.78;3.40;;;8.30;99.90;;;;;;6188855;23;20350;-83
2023/04/07 11:02:12;;;;;;;4.95;3.65;;;8.20;99.90;;;;;;6188604;23;20347;-84
2023/04/07 11:04:42;;;;;;;4.55;3.70;;;7.80;99.90;;;;;;6188246;23;20350;-84
2023/04/07 11:07:09;;;;;;;4.45;3.50;;;7.70;99.90;;;;;;6216427;23;20405;-83
2023/04/07 11:09:35;;;;;;;6.80;3.83;;;7.70;99.90;;;;;;6215670;23;20368;-84
2023/04/07 11:12:01;;;;;;;6.23;3.47;;;7.80;99.90;;;;;;6188943;23;20483;-84
2023/04/07 11:14:36;;;;;;;4.38;3.80;;;8.10;99.90;;;;;;6188814;23;20369;-84
2023/04/07 11:17:02;;;;;;;7.50;4.13;;;8.20;99.90;;;;;;6189930;23;20618;-83
2023/04/07 11:19:29;;;;;;;3.92;3.55;;;7.70;99.90;;;;;;6237716;23;20358;-84
2023/04/07 11:22:14;;;;;;;3.97;3.47;;;7.70;99.90;;;;;;6214559;23;20370;-83
2023/04/07 11:24:40;;;;;;;4.78;3.70;;;7.80;99.90;;;;;;6214560;23;20376;-83
2023/04/07 11:27:15;;;;;;;5.28;4.32;;;7.80;99.90;;;;;;6210822;23;20350;-83
2023/04/07 11:29:41;;;;;;;5.88;4.35;;;7.60;99.90;;;;;;6223975;23;20344;-82
2023/04/07 11:32:06;;;;;;;6.28;4.68;;;7.50;99.90;;;;;;6198365;23;20358;-83
2023/04/07 11:34:34;;;;;;;7.28;4.45;;;7.80;99.90;;;;;;6198206;23;20386;-83
2023/04/07 11:37:23;;;;;;;6.93;4.80;;;7.90;99.90;;;;;;6227000;23;20342;-84
2023/04/07 11:39:56;;;;;;;5.30;4.70;;;8.00;99.90;;;;;;6237615;23;20400;-82
2023/04/07 11:42:36;;;;;;;5.70;4.70;;;7.80;99.90;;;;;;6229047;23;20354;-85
2023/04/07 11:45:02;;;;;;;5.93;5.25;;;7.80;99.90;;;;;;6217232;23;20338;-84
2023/04/07 11:47:38;;;;;;;6.43;5.50;;;7.70;99.90;;;;;;6215797;23;20342;-84
2023/04/07 11:50:04;;;;;;;6.83;6.13;;;7.50;99.90;;;;;;6214689;23;20353;-84
2023/04/07 11:52:46;;;;;;;6.85;6.15;;;7.20;99.90;;;;;;6215187;23;20357;-83
2023/04/07 11:55:23;;;;;;;6.90;6.20;;;6.90;99.90;;;;;;6215541;23;20389;-84
2023/04/07 11:57:52;;;;;;;6.95;6.20;;;7.00;99.90;;;;;;6189985;23;20350;-83
2023/04/07 12:00:19;;;;;;;7.38;6.28;;;6.60;99.90;;;;;;6188744;23;20453;-84
2023/04/07 12:02:45;;;;;;;7.38;6.35;;;6.50;99.90;;;;;;6188414;23;20396;-84
2023/04/07 12:05:11;;;;;;;7.57;6.60;;;6.70;99.90;;;;;;6215186;23;20342;-84
2023/04/07 12:07:37;;;;;;;8.00;6.00;;;6.50;99.90;;;;;;6214179;23;20374;-84
2023/04/07 12:10:19;;;;;;;6.50;4.80;;;6.70;99.90;;;;;;6214469;23;20365;-84
2023/04/07 12:12:46;;;;;;;5.18;4.68;;;6.50;99.90;;;;;;6213712;23;20358;-83
2023/04/07 12:15:12;;;;;;;4.78;4.30;;;6.50;99.90;;;;;;6187357;23;20832;-84
2023/04/07 12:17:43;;;;;;;5.15;4.65;;;6.40;99.90;;;;;;6213984;23;20353;-84
2023/04/07 12:20:09;;;;;;;5.68;4.70;;;6.30;99.90;;;;;;6213914;23;20342;-83
2023/04/07 12:22:34;;;;;;;5.78;4.47;;;6.30;99.90;;;;;;6213953;23;20427;-83
2023/04/07 12:25:00;;;;;;;5.07;4.57;;;6.20;99.90;;;;;;6187120;23;20433;-83
2023/04/07 12:27:26;;;;;;;5.55;4.75;;;6.00;99.90;;;;;;6214019;23;20693;-83
2023/04/07 12:29:52;;;;;;;5.47;4.40;;;6.30;99.90;;;;;;6213546;23;20964;-84
2023/04/07 12:32:18;;;;;;;4.60;4.20;;;6.40;99.90;;;;;;6213451;23;20369;-84
2023/04/07 12:34:43;;;;;;;6.13;4.88;;;6.30;99.90;;;;;;6213962;23;20377;-83
2023/04/07 12:37:09;;;;;;;5.00;4.30;;;6.50;99.90;;;;;;6187694;23;20436;-84
2023/04/07 12:39:34;;;;;;;5.10;4.13;;;6.70;99.90;;;;;;6219290;23;20350;-84
2023/04/07 12:42:00;;;;;;;5.45;4.32;;;6.70;99.90;;;;;;6187062;23;20381;-84
2023/04/07 12:44:26;;;;;;;4.47;4.07;;;6.50;99.90;;;;;;6213502;23;20350;-84
2023/04/07 12:46:52;;;;;;;4.13;3.70;;;6.70;99.90;;;;;;6214024;23;20345;-83
2023/04/07 12:49:17;;;;;;;4.43;4.03;;;6.70;99.90;;;;;;6214191;23;20754;-84
2023/04/07 12:51:43;;;;;;;4.27;3.70;;;6.70;99.90;;;;;;6187122;23;20396;-84
2023/04/07 12:54:09;;;;;;;4.20;3.80;;;6.60;99.90;;;;;;6187178;23;20432;-84
2023/04/07 12:56:35;;;;;;;5.05;4.15;;;6.70;99.90;;;;;;6213412;23;20352;-85
2023/04/07 12:59:01;;;;;;;4.18;3.78;;;6.70;99.90;;;;;;6213208;23;20370;-84
2023/04/07 13:01:26;;;;;;;4.03;3.65;;;6.60;99.90;;;;;;6186642;23;20360;-84
2023/04/07 13:03:52;;;;;;;4.53;3.90;;;6.80;99.90;;;;;;6186828;23;20350;-85
2023/04/07 13:06:18;;;;;;;3.67;3.38;;;6.80;99.90;;;;;;6213587;23;20342;-84
2023/04/07 13:08:43;;;;;;;4.32;3.60;;;6.80;99.90;;;;;;6186955;23;20400;-84
2023/04/07 13:11:09;;;;;;;4.57;3.42;;;6.60;99.90;;;;;;6186792;23;20361;-84
2023/04/07 13:13:35;;;;;;;4.10;3.50;;;6.70;99.90;;;;;;6187122;23;20385;-85
2023/04/07 13:16:01;;;;;;;3.77;3.37;;;6.60;99.90;;;;;;6187355;23;20362;-85
2023/04/07 13:18:27;;;;;;;4.07;3.60;;;6.70;99.90;;;;;;6213698;23;20346;-84
2023/04/07 13:20:52;;;;;;;4.10;3.43;;;6.70;99.90;;;;;;6213342;23;20346;-85
2023/04/07 13:23:18;;;;;;;4.18;3.58;;;6.70;99.90;;;;;;6213129;23;20426;-85
2023/04/07 13:25:43;;;;;;;3.75;3.45;;;6.70;99.90;;;;;;6187274;23;20400;-85
2023/04/07 13:28:09;;;;;;;4.13;3.73;;;6.70;99.90;;;;;;6213582;23;20346;-85
2023/04/07 13:30:35;;;;;;;4.25;3.85;;;6.70;99.90;;;;;;6187483;23;20342;-84
2023/04/07 13:33:00;;;;;;;5.30;4.50;;;6.80;99.90;;;;;;6187201;23;20366;-85
2023/04/07 13:35:26;;;;;;;5.13;4.63;;;6.60;99.90;;;;;;6213773;23;20383;-85
2023/04/07 13:37:52;;;;;;;5.25;4.50;;;6.50;99.90;;;;;;6187495;23;20417;-85
2023/04/07 13:40:17;;;;;;;4.55;4.10;;;6.80;99.90;;;;;;6186885;23;20432;-85
2023/04/07 13:42:43;;;;;;;4.43;4.00;;;6.90;99.90;;;;;;6186555;23;20722;-85
2023/04/07 13:45:09;;;;;;;5.00;4.17;;;6.90;99.90;;;;;;6186882;23;20400;-85
2023/04/07 13:47:35;;;;;;;5.25;4.38;;;7.00;99.90;;;;;;6187519;23;20428;-85
2023/04/07 13:50:02;;;;;;;4.40;4.00;;;6.90;99.90;;;;;;6214008;23;20428;-85
2023/04/07 13:52:28;;;;;;;4.88;4.05;;;6.70;99.90;;;;;;6215307;23;20346;-85
2023/04/07 13:54:54;;;;;;;4.93;4.43;;;6.70;99.90;;;;;;6190066;23;20765;-86
2023/04/07 13:57:20;;;;;;;4.93;4.43;;;6.60;99.90;;;;;;6215403;23;20357;-86
2023/04/07 13:59:53;;;;;;;6.03;4.90;;;6.50;99.90;;;;;;6215873;23;20353;-85
2023/04/07 14:02:19;;;;;;;5.13;4.63;;;6.50;99.90;;;;;;6215503;23;20369;-86
2023/04/07 14:04:45;;;;;;;5.22;4.35;;;6.60;99.90;;;;;;6188898;23;20350;-85
2023/04/07 14:07:11;;;;;;;5.40;4.90;;;6.50;99.90;;;;;;6215112;23;20875;-85
2023/04/07 14:09:36;;;;;;;5.38;4.53;;;6.40;99.90;;;;;;6215174;23;20839;-85
2023/04/07 14:12:03;;;;;;;4.93;4.50;;;6.50;99.90;;;;;;6188802;23;20373;-86
2023/04/07 14:14:29;;;;;;;5.78;4.70;;;6.50;99.90;;;;;;6189996;23;20498;-86
2023/04/07 14:16:56;;;;;;;4.57;4.17;;;6.50;99.90;;;;;;6215834;23;20350;-86
2023/04/07 14:19:23;;;;;;;6.00;4.97;;;6.50;99.90;;;;;;6188491;23;20852;-86
2023/04/07 14:21:49;;;;;;;4.65;4.25;;;6.50;99.90;;;;;;6188805;23;20350;-84